首页
METAR-TAF:

METAR-TAF

机场 :

Beaver Island Airport

Beaver Island, 密歇根州, 美国

纬度: 45-41-32N, 经度: 085-33-59W, 海拔: 204米

当前天气观测

该预报发布于17分钟前的07:56 UTC
风速14节,风向西北,有时为22节阵风
温度 -6°C
湿度 73%
气压 1006 hPa
能見度: 11.3公里
阴天层高于2400英尺
小雪

METAR: KSJX 100756Z AUTO 32014G22KT 7SM -SN OVC024 M06/M10 A2970 RMK AO2 T10631105

时间: 03:13 (08:13 UTC)


TAF: 丢失

超过4000个机场的气象观测和天气预报(METAR&TAF报告)。

可查询的气象台以黄色和红色小点在地图上表示。

将鼠标移到小点上方,可查看气象台名称。

然后点击查看天气观测和预报。

如需切换地图:点击带黑十字的绿色按钮放大地图;点击带横线的绿色按钮缩小地图;或者点击绿色箭头查看邻近地区的地图。


METAR-TAF: